createdAt,value
2022-09-15T00:00:29.829Z,0.85
2022-09-15T00:01:01.971Z,1.52
2022-09-15T00:01:33.321Z,1.35
2022-09-15T00:02:04.900Z,1.60
2022-09-15T00:02:36.281Z,1.60
2022-09-15T00:03:07.730Z,1.15
2022-09-15T00:03:40.245Z,1.45
2022-09-15T00:04:11.722Z,1.80
2022-09-15T00:04:43.028Z,1.63
2022-09-15T00:05:14.618Z,1.75
2022-09-15T00:05:46.397Z,1.40
2022-09-15T00:06:18.176Z,1.92
2022-09-15T00:06:49.501Z,1.90
2022-09-15T00:07:20.823Z,1.52
2022-09-15T00:07:52.113Z,1.58
2022-09-15T00:08:24.167Z,1.50
2022-09-15T00:08:56.439Z,1.90
2022-09-15T00:09:27.748Z,1.48
2022-09-15T00:09:59.124Z,1.23
2022-09-15T00:10:30.823Z,1.73
2022-09-15T00:11:14.880Z,1.60
2022-09-15T00:11:46.276Z,1.60
2022-09-15T00:12:17.764Z,1.80
2022-09-15T00:12:49.070Z,1.73
2022-09-15T00:13:21.621Z,1.58
2022-09-15T00:13:53.735Z,1.63
2022-09-15T00:14:25.143Z,1.95
2022-09-15T00:14:56.535Z,2.15
2022-09-15T00:15:27.853Z,1.53
2022-09-15T00:15:59.187Z,2.15
2022-09-15T00:16:32.238Z,1.00
2022-09-15T00:17:03.683Z,1.52
2022-09-15T00:17:35.101Z,1.90
2022-09-15T00:18:07.079Z,1.50
2022-09-15T00:18:39.743Z,1.55
2022-09-15T00:19:11.117Z,2.38
2022-09-15T00:19:42.405Z,1.77
2022-09-15T00:20:13.908Z,1.48
2022-09-15T00:20:45.979Z,2.17
2022-09-15T00:21:21.151Z,2.13
2022-09-15T00:21:52.489Z,2.47
2022-09-15T00:22:24.116Z,1.30
2022-09-15T00:22:55.444Z,1.10
2022-09-15T00:23:26.802Z,1.80
2022-09-15T00:23:59.590Z,1.48
2022-09-15T00:24:30.975Z,1.80
2022-09-15T00:25:02.340Z,1.85
2022-09-15T00:25:33.862Z,1.52
2022-09-15T00:26:10.885Z,1.00
2022-09-15T00:26:42.233Z,1.17
2022-09-15T00:27:13.534Z,1.40
2022-09-15T00:27:44.811Z,1.30
2022-09-15T00:28:18.576Z,1.50
2022-09-15T00:28:50.439Z,1.70
2022-09-15T00:29:21.875Z,1.27
2022-09-15T00:29:53.253Z,1.45
2022-09-15T00:30:24.609Z,1.75
2022-09-15T00:30:56.012Z,1.08
2022-09-15T00:31:28.766Z,1.43
2022-09-15T00:32:00.061Z,1.17
2022-09-15T00:32:31.938Z,1.40
2022-09-15T00:33:03.388Z,1.48
2022-09-15T00:33:35.214Z,1.77
2022-09-15T00:34:07.085Z,1.25
2022-09-15T00:34:38.359Z,1.05
2022-09-15T00:35:09.712Z,1.30
2022-09-15T00:35:42.557Z,1.55
2022-09-15T00:36:15.140Z,1.70
2022-09-15T00:36:46.471Z,1.50
2022-09-15T00:37:18.076Z,1.30
2022-09-15T00:37:49.357Z,2.10
2022-09-15T00:38:20.695Z,1.42
2022-09-15T00:38:53.079Z,1.60
2022-09-15T00:39:25.227Z,1.77
2022-09-15T00:39:56.663Z,1.27
2022-09-15T00:40:28.068Z,1.48
2022-09-15T00:41:00.547Z,2.10
2022-09-15T00:41:32.161Z,1.80
2022-09-15T00:42:04.031Z,1.30
2022-09-15T00:42:35.335Z,1.50
2022-09-15T00:43:09.976Z,1.80
2022-09-15T00:43:50.155Z,2.00
2022-09-15T00:44:21.896Z,1.80
2022-09-15T00:44:54.966Z,2.30
2022-09-15T00:45:27.177Z,1.60
2022-09-15T00:45:58.538Z,1.80
2022-09-15T00:46:36.543Z,2.13
2022-09-15T00:47:19.203Z,1.42
2022-09-15T00:47:51.921Z,1.60
2022-09-15T00:48:23.321Z,1.80
2022-09-15T00:49:20.016Z,1.90
2022-09-15T00:49:58.991Z,1.73
2022-09-15T00:50:32.610Z,1.65
2022-09-15T00:51:05.988Z,1.67
2022-09-15T00:51:49.675Z,1.00
2022-09-15T00:52:29.223Z,1.70
2022-09-15T00:53:04.469Z,3.45
2022-09-15T00:53:37.111Z,1.80
2022-09-15T00:54:17.596Z,1.57
2022-09-15T00:54:56.255Z,1.50
2022-09-15T00:55:39.166Z,1.40
2022-09-15T00:56:12.375Z,1.75
2022-09-15T00:56:45.549Z,1.40
2022-09-15T00:57:22.731Z,1.75
2022-09-15T00:58:00.561Z,1.77
2022-09-15T00:58:41.762Z,1.40
2022-09-15T00:59:18.020Z,1.88
2022-09-15T00:59:50.881Z,1.77
2022-09-15T01:00:27.411Z,1.10
2022-09-15T01:01:01.262Z,2.08
2022-09-15T01:01:33.029Z,2.10
2022-09-15T01:02:12.031Z,1.42
2022-09-15T01:02:45.744Z,1.75
2022-09-15T01:03:17.842Z,1.40
2022-09-15T01:03:49.284Z,1.60
2022-09-15T01:04:20.777Z,1.85
2022-09-15T01:04:58.173Z,2.03
2022-09-15T01:05:51.405Z,1.70
2022-09-15T01:06:41.197Z,1.90
2022-09-15T01:07:16.994Z,1.85
2022-09-15T01:08:01.824Z,1.75
2022-09-15T01:08:42.401Z,2.35
2022-09-15T01:09:19.269Z,2.10
2022-09-15T01:09:54.331Z,2.20
2022-09-15T01:10:32.088Z,2.03
2022-09-15T01:11:03.642Z,2.30
2022-09-15T01:11:35.635Z,2.80
2022-09-15T01:12:07.597Z,1.85
2022-09-15T01:12:40.914Z,2.50
2022-09-15T01:13:14.292Z,1.45
2022-09-15T01:13:45.720Z,1.55
2022-09-15T01:14:17.058Z,2.55
2022-09-15T01:14:48.372Z,2.35
2022-09-15T01:15:24.566Z,2.00
2022-09-15T01:16:00.295Z,2.17
2022-09-15T01:17:04.330Z,2.33
2022-09-15T01:17:54.724Z,1.67
2022-09-15T01:18:45.834Z,1.60
2022-09-15T01:20:07.636Z,1.80
2022-09-15T01:21:01.996Z,2.30
2022-09-15T01:21:45.479Z,1.77
2022-09-15T01:22:36.823Z,2.45
2022-09-15T01:23:45.432Z,2.53
2022-09-15T01:24:31.896Z,2.00
2022-09-15T01:25:14.929Z,1.70
2022-09-15T01:26:33.594Z,1.88
2022-09-15T01:27:41.581Z,2.10
2022-09-15T01:28:22.725Z,2.00
2022-09-15T01:29:24.813Z,1.50
2022-09-15T01:30:14.049Z,2.03
2022-09-15T01:31:14.210Z,1.20
2022-09-15T01:32:17.576Z,2.10
2022-09-15T01:33:05.066Z,1.98
2022-09-15T01:33:53.281Z,1.63
2022-09-15T01:34:27.352Z,2.35
2022-09-15T01:35:17.104Z,2.40
2022-09-15T01:36:12.870Z,1.63
2022-09-15T01:36:53.783Z,1.70
2022-09-15T01:37:30.775Z,1.50
2022-09-15T01:38:27.859Z,2.60
2022-09-15T01:39:08.509Z,1.92
2022-09-15T01:39:44.750Z,2.45
2022-09-15T01:40:19.299Z,2.42
2022-09-15T01:41:03.180Z,1.70
2022-09-15T01:41:42.954Z,2.08
2022-09-15T01:42:16.454Z,2.38
2022-09-15T01:42:50.977Z,2.25
2022-09-15T01:43:25.125Z,2.47
2022-09-15T01:44:09.445Z,2.60
2022-09-15T01:44:56.646Z,2.38
2022-09-15T01:45:32.496Z,2.65
2022-09-15T01:46:04.833Z,2.88
2022-09-15T01:46:40.936Z,3.50
2022-09-15T01:47:17.549Z,2.70
2022-09-15T01:47:52.343Z,2.42
2022-09-15T01:48:27.283Z,2.40
2022-09-15T01:49:01.619Z,2.70
2022-09-15T01:49:48.493Z,2.50
2022-09-15T01:50:28.660Z,3.07
2022-09-15T01:51:03.295Z,2.78
2022-09-15T01:51:36.682Z,2.25
2022-09-15T01:52:08.456Z,2.97
2022-09-15T01:52:44.583Z,2.70
2022-09-15T01:53:18.840Z,2.65
2022-09-15T01:53:52.755Z,3.00
2022-09-15T01:54:32.898Z,3.25
2022-09-15T01:55:11.889Z,3.05
2022-09-15T01:55:49.981Z,2.65
2022-09-15T01:56:21.507Z,3.50
2022-09-15T01:56:52.878Z,3.08
2022-09-15T01:57:24.778Z,2.83
2022-09-15T01:57:58.010Z,3.28
2022-09-15T01:58:29.512Z,2.97
2022-09-15T01:59:00.905Z,2.50
2022-09-15T01:59:33.965Z,2.20
2022-09-15T02:00:05.873Z,2.83
2022-09-15T02:00:42.651Z,2.97
2022-09-15T02:01:21.113Z,2.40
2022-09-15T02:02:01.603Z,2.70
2022-09-15T02:02:36.593Z,2.00
2022-09-15T02:03:17.167Z,2.70
2022-09-15T02:04:21.576Z,2.17
2022-09-15T02:04:58.030Z,2.45
2022-09-15T02:05:35.845Z,2.50
2022-09-15T02:06:18.280Z,2.40
2022-09-15T02:07:23.774Z,2.13
2022-09-15T02:08:05.054Z,2.50
2022-09-15T02:08:58.490Z,2.42
2022-09-15T02:09:35.029Z,2.53
2022-09-15T02:10:24.384Z,2.30
2022-09-15T02:11:02.514Z,2.40
2022-09-15T02:11:36.145Z,3.22
2022-09-15T02:12:29.046Z,3.33
2022-09-15T02:13:16.827Z,2.63
2022-09-15T02:14:03.344Z,2.30
2022-09-15T02:14:57.720Z,2.95
2022-09-15T02:15:42.204Z,2.85
2022-09-15T02:16:20.475Z,2.80
2022-09-15T02:16:54.365Z,2.90
2022-09-15T02:17:29.312Z,2.65
2022-09-15T02:18:03.493Z,2.85
2022-09-15T02:18:39.520Z,4.75
2022-09-15T02:19:21.607Z,3.10
2022-09-15T02:19:57.963Z,3.00
2022-09-15T02:20:51.301Z,3.08
2022-09-15T02:21:44.744Z,2.85
2022-09-15T02:22:23.503Z,3.45
2022-09-15T02:23:00.809Z,3.13
2022-09-15T02:23:37.794Z,3.10
2022-09-15T02:24:18.567Z,3.22
2022-09-15T02:25:13.126Z,2.28
2022-09-15T02:25:51.525Z,3.00
2022-09-15T02:26:27.714Z,3.10
2022-09-15T02:27:01.680Z,2.97
2022-09-15T02:27:38.845Z,2.55
2022-09-15T02:28:13.956Z,2.20
2022-09-15T02:28:49.133Z,2.85
2022-09-15T02:29:22.606Z,2.20
2022-09-15T02:29:58.900Z,2.07
2022-09-15T02:30:32.633Z,2.90
2022-09-15T02:31:08.489Z,2.60
2022-09-15T02:31:42.120Z,2.65
2022-09-15T02:32:18.030Z,3.00
2022-09-15T02:32:56.819Z,2.17
2022-09-15T02:33:34.948Z,2.40
2022-09-15T02:34:13.040Z,2.60
2022-09-15T02:34:50.584Z,2.85
2022-09-15T02:35:23.855Z,2.28
2022-09-15T02:35:55.610Z,2.47
2022-09-15T02:36:29.314Z,3.42
2022-09-15T02:37:02.084Z,2.97
2022-09-15T02:37:36.321Z,2.88
2022-09-15T02:38:09.317Z,2.33
2022-09-15T02:38:49.121Z,1.80
2022-09-15T02:39:26.410Z,2.33
2022-09-15T02:39:59.952Z,2.60
2022-09-15T02:40:32.251Z,2.33
2022-09-15T02:41:03.762Z,3.15
2022-09-15T02:41:36.967Z,2.30
2022-09-15T02:42:09.309Z,2.67
2022-09-15T02:42:42.379Z,1.90
2022-09-15T02:43:18.083Z,2.78
2022-09-15T02:43:50.020Z,2.40
2022-09-15T02:44:22.003Z,2.70
2022-09-15T02:44:53.962Z,2.67
2022-09-15T02:45:26.791Z,2.80
2022-09-15T02:45:58.453Z,2.97
2022-09-15T02:46:30.190Z,2.40
2022-09-15T02:47:02.237Z,2.40
2022-09-15T02:47:33.524Z,2.85
2022-09-15T02:48:05.201Z,2.70
2022-09-15T02:48:36.693Z,2.90
2022-09-15T02:49:07.997Z,3.33
2022-09-15T02:49:39.276Z,2.30
2022-09-15T02:50:10.573Z,2.95
2022-09-15T02:50:41.907Z,2.85
2022-09-15T02:51:14.439Z,3.15
2022-09-15T02:51:45.814Z,2.10
2022-09-15T02:52:17.399Z,2.43
2022-09-15T02:52:48.688Z,2.45
2022-09-15T02:53:19.961Z,2.80
2022-09-15T02:53:51.551Z,2.72
2022-09-15T02:54:22.843Z,3.13
2022-09-15T02:54:54.456Z,2.65
2022-09-15T02:55:28.884Z,3.05
2022-09-15T02:56:00.172Z,2.78
2022-09-15T02:56:31.614Z,2.85
2022-09-15T02:57:02.903Z,2.65
2022-09-15T02:57:34.280Z,2.40
2022-09-15T02:58:05.639Z,2.17
2022-09-15T02:58:36.988Z,1.98
2022-09-15T02:59:08.320Z,2.10
2022-09-15T02:59:58.488Z,2.88
2022-09-15T03:00:30.892Z,2.42
2022-09-15T03:01:07.329Z,2.30
2022-09-15T03:01:40.699Z,2.80
2022-09-15T03:02:12.572Z,2.58
2022-09-15T03:02:46.767Z,2.47
2022-09-15T03:03:18.886Z,3.00
2022-09-15T03:03:50.189Z,2.33
2022-09-15T03:04:21.504Z,1.67
2022-09-15T03:05:27.992Z,2.08
2022-09-15T03:06:16.240Z,2.10
2022-09-15T03:06:47.727Z,2.13
2022-09-15T03:07:19.408Z,2.75
2022-09-15T03:07:51.707Z,2.80
2022-09-15T03:08:22.997Z,2.33
2022-09-15T03:09:01.265Z,1.77
2022-09-15T03:09:32.623Z,2.40
2022-09-15T03:10:08.550Z,2.50
2022-09-15T03:10:39.870Z,2.67
2022-09-15T03:11:12.085Z,2.40
2022-09-15T03:11:43.449Z,2.38
2022-09-15T03:12:14.932Z,2.00
2022-09-15T03:12:51.728Z,2.50
2022-09-15T03:13:23.203Z,2.22
2022-09-15T03:13:57.050Z,2.00
2022-09-15T03:14:29.380Z,2.37
2022-09-15T03:15:00.676Z,2.72
2022-09-15T03:15:33.252Z,2.20
2022-09-15T03:16:10.072Z,2.63
2022-09-15T03:16:41.507Z,3.22
2022-09-15T03:17:13.254Z,2.20
2022-09-15T03:17:46.855Z,2.33
2022-09-15T03:18:18.160Z,1.75
2022-09-15T03:18:49.552Z,2.67
2022-09-15T03:19:20.823Z,1.67
2022-09-15T03:19:52.119Z,1.83
2022-09-15T03:20:28.025Z,1.95
2022-09-15T03:20:59.571Z,2.00
2022-09-15T03:21:30.932Z,2.08
2022-09-15T03:22:02.216Z,1.83
2022-09-15T03:22:33.584Z,1.40
2022-09-15T03:23:04.883Z,2.17
2022-09-15T03:23:36.704Z,2.03
2022-09-15T03:24:08.120Z,2.03
2022-09-15T03:24:39.480Z,2.70
2022-09-15T03:25:11.195Z,1.93
2022-09-15T03:25:45.470Z,1.60
2022-09-15T03:26:17.016Z,1.80
2022-09-15T03:26:49.160Z,2.55
2022-09-15T03:27:20.462Z,2.17
2022-09-15T03:27:51.755Z,2.30
2022-09-15T03:28:23.032Z,1.73
2022-09-15T03:28:54.553Z,2.75
2022-09-15T03:29:27.065Z,2.70
2022-09-15T03:29:58.801Z,1.92
2022-09-15T03:30:30.147Z,1.93
2022-09-15T03:31:02.085Z,2.58
2022-09-15T03:31:33.498Z,2.55
2022-09-15T03:32:04.985Z,1.80
2022-09-15T03:32:36.491Z,1.48
2022-09-15T03:33:07.825Z,1.92
2022-09-15T03:33:40.184Z,1.52
2022-09-15T03:34:11.600Z,1.67
2022-09-15T03:34:42.908Z,1.52
2022-09-15T03:35:14.526Z,1.58
2022-09-15T03:35:50.304Z,1.87
2022-09-15T03:36:21.756Z,1.85
2022-09-15T03:36:53.047Z,1.80
2022-09-15T03:37:24.451Z,2.15
2022-09-15T03:37:55.924Z,2.20
2022-09-15T03:38:27.330Z,2.38
2022-09-15T03:38:58.851Z,2.15
2022-09-15T03:39:30.260Z,1.70
2022-09-15T03:40:03.881Z,1.55
2022-09-15T03:40:36.029Z,1.98
2022-09-15T03:41:11.223Z,2.20
2022-09-15T03:41:42.571Z,1.70
2022-09-15T03:42:14.107Z,1.92
2022-09-15T03:42:45.419Z,2.30
2022-09-15T03:43:18.706Z,1.85
2022-09-15T03:43:50.220Z,1.70
2022-09-15T03:44:21.677Z,1.88
2022-09-15T03:44:53.171Z,1.75
2022-09-15T03:45:24.498Z,2.35
2022-09-15T03:45:56.867Z,1.65
2022-09-15T03:46:28.593Z,1.90
2022-09-15T03:47:00.288Z,2.25
2022-09-15T03:47:32.619Z,1.98
2022-09-15T03:48:05.480Z,1.85
2022-09-15T03:48:37.644Z,2.05
2022-09-15T03:49:09.180Z,1.55
2022-09-15T03:49:40.507Z,1.90
2022-09-15T03:50:11.937Z,2.22
2022-09-15T03:50:43.251Z,2.35
2022-09-15T03:51:14.844Z,1.70
2022-09-15T03:51:46.165Z,1.60
2022-09-15T03:52:17.531Z,2.33
2022-09-15T03:52:48.844Z,1.38
2022-09-15T03:53:20.445Z,2.65
2022-09-15T03:53:51.771Z,1.80
2022-09-15T03:54:23.097Z,1.52
2022-09-15T03:54:55.580Z,1.77
2022-09-15T03:55:27.511Z,1.73
2022-09-15T03:56:13.567Z,1.88
2022-09-15T03:56:47.266Z,1.80
2022-09-15T03:57:18.579Z,1.60
2022-09-15T03:57:49.865Z,1.58
2022-09-15T03:58:21.325Z,2.08
2022-09-15T03:58:53.358Z,2.20
2022-09-15T03:59:24.883Z,2.08
2022-09-15T03:59:56.193Z,1.83
2022-09-15T04:00:27.800Z,2.00
2022-09-15T04:00:59.200Z,2.67
2022-09-15T04:01:30.877Z,1.70
2022-09-15T04:02:02.490Z,1.17
2022-09-15T04:02:34.231Z,2.17
2022-09-15T04:03:06.860Z,2.03
2022-09-15T04:03:44.108Z,2.05
2022-09-15T04:04:16.215Z,1.75
2022-09-15T04:04:47.500Z,1.98
2022-09-15T04:05:18.783Z,1.70
2022-09-15T04:05:50.120Z,1.85
2022-09-15T04:06:22.680Z,1.92
2022-09-15T04:06:54.183Z,2.08
2022-09-15T04:07:25.667Z,1.95
2022-09-15T04:07:57.017Z,1.47
2022-09-15T04:08:28.336Z,1.63
2022-09-15T04:09:02.332Z,1.52
2022-09-15T04:09:33.729Z,1.88
2022-09-15T04:10:05.844Z,1.27
2022-09-15T04:10:38.544Z,1.65
2022-09-15T04:11:12.027Z,1.30
2022-09-15T04:11:43.407Z,1.35
2022-09-15T04:12:14.696Z,2.33
2022-09-15T04:12:46.081Z,1.35
2022-09-15T04:13:17.418Z,1.67
2022-09-15T04:13:48.832Z,1.88
2022-09-15T04:14:20.112Z,1.90
2022-09-15T04:14:51.408Z,1.77
2022-09-15T04:15:22.825Z,1.52
2022-09-15T04:16:02.886Z,1.60
2022-09-15T04:16:34.286Z,2.00
2022-09-15T04:17:05.783Z,1.88
2022-09-15T04:17:37.300Z,1.70
2022-09-15T04:18:08.707Z,1.58
2022-09-15T04:18:40.740Z,1.63
2022-09-15T04:19:12.281Z,2.20
2022-09-15T04:19:43.648Z,1.30
2022-09-15T04:20:17.106Z,2.28
2022-09-15T04:20:48.387Z,1.63
2022-09-15T04:21:22.981Z,1.90
2022-09-15T04:21:54.319Z,1.73
2022-09-15T04:22:26.015Z,1.55
2022-09-15T04:22:58.454Z,1.85
2022-09-15T04:23:29.891Z,1.83
2022-09-15T04:24:01.465Z,1.30
2022-09-15T04:24:32.759Z,1.60
2022-09-15T04:25:04.603Z,1.50
2022-09-15T04:25:35.947Z,1.60
2022-09-15T04:26:11.728Z,2.08
2022-09-15T04:26:43.111Z,1.10
2022-09-15T04:27:15.282Z,1.58
2022-09-15T04:27:46.641Z,1.38
2022-09-15T04:28:18.050Z,1.90
2022-09-15T04:28:49.529Z,1.00
2022-09-15T04:29:20.903Z,1.17
2022-09-15T04:29:52.529Z,1.50
2022-09-15T04:30:24.206Z,1.30
2022-09-15T04:31:12.819Z,1.73
2022-09-15T04:31:44.485Z,1.70
2022-09-15T04:32:16.016Z,1.30
2022-09-15T04:32:47.401Z,1.23
2022-09-15T04:33:18.953Z,1.27
2022-09-15T04:33:53.198Z,1.25
2022-09-15T04:34:25.003Z,1.25
2022-09-15T04:34:56.301Z,1.60
2022-09-15T04:35:28.126Z,1.65
2022-09-15T04:36:06.320Z,1.73
2022-09-15T04:36:38.032Z,1.83
2022-09-15T04:37:10.265Z,1.85
2022-09-15T04:37:41.689Z,1.73
2022-09-15T04:38:13.228Z,1.33
2022-09-15T04:38:45.392Z,1.98
2022-09-15T04:39:16.710Z,1.73
2022-09-15T04:39:49.132Z,1.42
2022-09-15T04:40:20.521Z,1.00
2022-09-15T04:40:52.524Z,2.45
2022-09-15T04:41:26.823Z,1.17
2022-09-15T04:41:58.200Z,1.88
2022-09-15T04:42:30.966Z,1.67
2022-09-15T04:43:02.285Z,1.58
2022-09-15T04:43:33.984Z,1.40
2022-09-15T04:44:05.324Z,1.55
2022-09-15T04:44:36.666Z,1.63
2022-09-15T04:45:08.527Z,1.10
2022-09-15T04:45:40.020Z,1.17
2022-09-15T04:46:13.017Z,1.42
2022-09-15T04:46:44.410Z,2.35
2022-09-15T04:47:15.792Z,1.50
2022-09-15T04:47:48.556Z,1.35
2022-09-15T04:48:20.062Z,1.25
2022-09-15T04:48:51.824Z,1.10
2022-09-15T04:49:23.153Z,1.52
2022-09-15T04:49:54.435Z,2.28
2022-09-15T04:50:25.795Z,1.40
2022-09-15T04:51:05.604Z,1.47
2022-09-15T04:51:37.967Z,1.35
2022-09-15T04:52:09.799Z,0.93
2022-09-15T04:52:41.488Z,1.27
2022-09-15T04:53:13.331Z,1.63
2022-09-15T04:53:45.626Z,1.35
2022-09-15T04:54:17.012Z,1.52
2022-09-15T04:54:48.344Z,1.52
2022-09-15T04:55:19.662Z,1.48
2022-09-15T04:55:50.964Z,1.23
2022-09-15T04:56:24.522Z,1.10
2022-09-15T04:56:55.815Z,1.30
2022-09-15T04:57:27.128Z,1.30
2022-09-15T04:57:58.444Z,1.75
2022-09-15T04:58:29.743Z,1.55
2022-09-15T04:59:03.905Z,2.38
2022-09-15T04:59:35.643Z,1.42
2022-09-15T05:00:07.675Z,1.67
2022-09-15T05:00:44.302Z,1.77
2022-09-15T05:01:21.815Z,1.25
2022-09-15T05:01:56.352Z,1.43
2022-09-15T05:02:27.953Z,1.38
2022-09-15T05:03:00.244Z,1.95
2022-09-15T05:03:31.577Z,1.70
2022-09-15T05:04:03.938Z,1.27
2022-09-15T05:04:35.292Z,1.65
2022-09-15T05:05:06.848Z,1.45
2022-09-15T05:05:39.183Z,1.33
2022-09-15T05:06:13.005Z,1.58
2022-09-15T05:06:44.317Z,2.08
2022-09-15T05:07:15.636Z,1.30
2022-09-15T05:07:47.619Z,1.50
2022-09-15T05:08:19.447Z,1.30
2022-09-15T05:08:52.678Z,1.27
2022-09-15T05:09:24.339Z,1.50
2022-09-15T05:09:55.667Z,1.50
2022-09-15T05:10:27.131Z,0.98
2022-09-15T05:11:00.088Z,1.85
2022-09-15T05:11:32.771Z,1.17
2022-09-15T05:12:04.270Z,1.83
2022-09-15T05:12:35.819Z,1.47
2022-09-15T05:13:07.112Z,0.95
2022-09-15T05:13:39.909Z,1.52
2022-09-15T05:14:11.638Z,1.70
2022-09-15T05:14:42.926Z,1.45
2022-09-15T05:15:14.214Z,1.55
2022-09-15T05:15:45.705Z,1.60
2022-09-15T05:16:35.140Z,1.80
2022-09-15T05:17:06.464Z,1.40
2022-09-15T05:17:38.176Z,1.67
2022-09-15T05:18:09.471Z,1.37
2022-09-15T05:18:42.255Z,1.90
2022-09-15T05:19:13.568Z,1.10
2022-09-15T05:19:44.903Z,1.70
2022-09-15T05:20:17.504Z,1.85
2022-09-15T05:20:48.790Z,0.95
2022-09-15T05:21:22.131Z,1.20
2022-09-15T05:21:53.489Z,1.63
2022-09-15T05:22:26.075Z,1.55
2022-09-15T05:22:57.369Z,1.33
2022-09-15T05:23:29.257Z,1.00
2022-09-15T05:24:00.770Z,1.65
2022-09-15T05:24:32.079Z,1.50
2022-09-15T05:25:04.289Z,1.48
2022-09-15T05:25:35.564Z,2.05
2022-09-15T05:26:09.576Z,1.40
2022-09-15T05:26:41.545Z,1.25
2022-09-15T05:27:12.889Z,1.77
2022-09-15T05:27:44.334Z,1.40
2022-09-15T05:28:15.751Z,0.93
2022-09-15T05:28:47.334Z,1.50
2022-09-15T05:29:19.366Z,1.20
2022-09-15T05:30:04.327Z,1.50
2022-09-15T05:30:44.349Z,2.08
2022-09-15T05:31:24.040Z,1.70
2022-09-15T05:31:55.484Z,1.35
2022-09-15T05:32:26.911Z,0.82
2022-09-15T05:32:58.405Z,2.00
2022-09-15T05:33:29.703Z,1.95
2022-09-15T05:34:03.749Z,1.70
2022-09-15T05:34:35.737Z,1.80
2022-09-15T05:35:07.215Z,1.48
2022-09-15T05:35:39.016Z,1.52
2022-09-15T05:36:10.702Z,2.13
2022-09-15T05:36:41.985Z,2.20
2022-09-15T05:37:14.129Z,1.60
2022-09-15T05:37:45.540Z,1.98
2022-09-15T05:38:16.971Z,1.30
2022-09-15T05:38:48.427Z,2.25
2022-09-15T05:39:19.721Z,1.65
2022-09-15T05:39:51.121Z,1.60
2022-09-15T05:40:22.629Z,1.45
2022-09-15T05:40:54.055Z,1.75
2022-09-15T05:41:27.259Z,1.77
2022-09-15T05:41:59.639Z,2.30
2022-09-15T05:42:31.933Z,0.90
2022-09-15T05:43:03.232Z,1.17
2022-09-15T05:43:36.032Z,1.90
2022-09-15T05:44:07.313Z,1.48
2022-09-15T05:44:38.669Z,1.45
2022-09-15T05:45:10.747Z,1.30
2022-09-15T05:45:44.982Z,1.95
2022-09-15T05:46:18.505Z,1.58
2022-09-15T05:46:49.938Z,1.63
2022-09-15T05:47:21.256Z,1.60
2022-09-15T05:47:52.554Z,1.48
2022-09-15T05:48:24.509Z,2.80
2022-09-15T05:48:57.998Z,1.58
2022-09-15T05:49:30.512Z,1.27
2022-09-15T05:50:01.820Z,2.47
2022-09-15T05:50:33.115Z,1.97
2022-09-15T05:51:05.054Z,1.35
2022-09-15T05:51:36.355Z,1.85
2022-09-15T05:52:07.656Z,1.92
2022-09-15T05:52:38.970Z,0.95
2022-09-15T05:53:10.268Z,1.35
2022-09-15T05:53:41.811Z,1.00
2022-09-15T05:54:13.827Z,2.00
2022-09-15T05:54:45.413Z,1.73
2022-09-15T05:55:16.721Z,1.40
2022-09-15T05:55:48.017Z,1.57
2022-09-15T05:56:20.015Z,1.50
2022-09-15T05:56:51.378Z,1.80
2022-09-15T05:57:22.709Z,1.60
2022-09-15T05:57:54.364Z,1.50
2022-09-15T05:58:26.563Z,1.30
2022-09-15T05:58:57.878Z,1.45
2022-09-15T05:59:29.215Z,1.70
2022-09-15T06:00:00.559Z,1.45
2022-09-15T06:00:31.904Z,1.60
2022-09-15T06:01:08.845Z,1.13
2022-09-15T06:01:40.355Z,1.50
2022-09-15T06:02:11.925Z,1.42
2022-09-15T06:02:43.341Z,1.90
2022-09-15T06:03:16.594Z,1.92
2022-09-15T06:03:49.168Z,1.73
2022-09-15T06:04:20.464Z,1.60
2022-09-15T06:04:51.795Z,1.50
2022-09-15T06:05:23.112Z,2.45
2022-09-15T06:06:02.285Z,1.60
2022-09-15T06:06:33.709Z,1.70
2022-09-15T06:07:05.036Z,1.25
2022-09-15T06:07:36.416Z,1.88
2022-09-15T06:08:08.015Z,1.35
2022-09-15T06:08:48.294Z,1.67
2022-09-15T06:09:20.042Z,1.65
2022-09-15T06:09:51.538Z,1.92
2022-09-15T06:10:24.876Z,2.60
2022-09-15T06:11:01.123Z,2.08
2022-09-15T06:11:33.730Z,1.70
2022-09-15T06:12:05.685Z,1.70
2022-09-15T06:12:36.978Z,1.60
2022-09-15T06:13:08.499Z,1.33
2022-09-15T06:13:40.136Z,2.08
2022-09-15T06:14:13.284Z,2.00
2022-09-15T06:14:45.819Z,1.63
2022-09-15T06:15:17.141Z,1.75
2022-09-15T06:15:48.460Z,1.77
2022-09-15T06:16:22.546Z,1.70
2022-09-15T06:16:53.957Z,2.45
2022-09-15T06:17:25.247Z,1.33
2022-09-15T06:17:56.573Z,1.70
2022-09-15T06:18:28.078Z,1.70
2022-09-15T06:19:00.928Z,1.80
2022-09-15T06:19:33.515Z,1.40
2022-09-15T06:20:07.030Z,2.42
2022-09-15T06:20:38.335Z,1.73
2022-09-15T06:21:13.322Z,2.05
2022-09-15T06:21:44.636Z,1.45
2022-09-15T06:22:15.924Z,1.70
2022-09-15T06:22:47.277Z,1.60
2022-09-15T06:23:18.552Z,1.13
2022-09-15T06:24:00.858Z,1.55
2022-09-15T06:24:32.187Z,1.83
2022-09-15T06:25:04.008Z,2.42
2022-09-15T06:25:35.336Z,1.33
2022-09-15T06:26:18.765Z,1.08
2022-09-15T06:26:50.252Z,1.92
2022-09-15T06:27:22.328Z,2.00
2022-09-15T06:27:54.199Z,1.45
2022-09-15T06:28:26.073Z,1.30
2022-09-15T06:29:00.311Z,1.33
2022-09-15T06:29:32.364Z,1.55
2022-09-15T06:30:04.382Z,1.88
2022-09-15T06:30:39.401Z,2.33
2022-09-15T06:31:14.447Z,1.40
2022-09-15T06:31:45.911Z,1.38
2022-09-15T06:32:17.743Z,1.35
2022-09-15T06:32:49.308Z,2.13
2022-09-15T06:33:20.606Z,1.75
2022-09-15T06:33:55.723Z,1.73
2022-09-15T06:34:27.012Z,1.60
2022-09-15T06:34:58.349Z,1.70
2022-09-15T06:35:29.640Z,1.95
2022-09-15T06:36:02.608Z,1.30
2022-09-15T06:36:36.161Z,1.42
2022-09-15T06:37:08.115Z,1.10
2022-09-15T06:37:39.407Z,1.45
2022-09-15T06:38:11.480Z,1.77
2022-09-15T06:38:43.953Z,1.60
2022-09-15T06:39:15.281Z,1.43
2022-09-15T06:39:46.584Z,1.50
2022-09-15T06:40:17.977Z,1.83
2022-09-15T06:40:59.256Z,2.05
2022-09-15T06:41:47.116Z,1.80
2022-09-15T06:42:22.264Z,1.80
2022-09-15T06:42:57.267Z,1.25
2022-09-15T06:43:31.020Z,2.00
2022-09-15T06:44:02.570Z,1.50
2022-09-15T06:44:33.855Z,1.23
2022-09-15T06:45:05.444Z,1.50
2022-09-15T06:45:36.955Z,1.23
2022-09-15T06:46:11.048Z,1.50
2022-09-15T06:46:42.689Z,1.30
2022-09-15T06:47:16.688Z,1.52
2022-09-15T06:47:58.268Z,1.23
2022-09-15T06:48:40.275Z,1.10
2022-09-15T06:49:11.686Z,1.20
2022-09-15T06:49:42.996Z,1.45
2022-09-15T06:50:14.395Z,1.15
2022-09-15T06:50:53.459Z,1.20
2022-09-15T06:51:28.215Z,1.10
2022-09-15T06:52:02.367Z,1.08
2022-09-15T06:52:33.649Z,1.92
2022-09-15T06:53:04.957Z,1.98
2022-09-15T06:53:40.937Z,1.08
2022-09-15T06:54:12.558Z,1.10
2022-09-15T06:54:44.024Z,1.67
2022-09-15T06:55:15.657Z,2.45
2022-09-15T06:55:47.017Z,1.55
2022-09-15T06:56:21.237Z,1.17
2022-09-15T06:56:52.562Z,1.02
2022-09-15T06:57:23.895Z,1.20
2022-09-15T06:57:55.273Z,1.55
2022-09-15T06:58:27.362Z,2.38
2022-09-15T06:58:59.976Z,1.60
2022-09-15T06:59:34.744Z,0.82
2022-09-15T07:00:07.512Z,1.30
2022-09-15T07:00:38.931Z,1.50
2022-09-15T07:01:19.353Z,1.13
2022-09-15T07:01:57.520Z,1.60
2022-09-15T07:02:30.282Z,1.33
2022-09-15T07:03:01.836Z,1.25
2022-09-15T07:03:33.300Z,1.40
2022-09-15T07:04:06.528Z,1.50
2022-09-15T07:04:37.875Z,1.08
2022-09-15T07:05:10.555Z,1.73
2022-09-15T07:05:44.614Z,1.10
2022-09-15T07:06:16.276Z,2.10
2022-09-15T07:06:48.044Z,1.35
2022-09-15T07:07:19.356Z,1.00
2022-09-15T07:07:50.852Z,1.42
2022-09-15T07:08:22.155Z,1.40
2022-09-15T07:08:53.895Z,1.48
2022-09-15T07:09:25.224Z,1.52
2022-09-15T07:09:56.505Z,1.48
2022-09-15T07:10:27.784Z,1.42
2022-09-15T07:10:59.264Z,1.55
2022-09-15T07:11:31.944Z,1.63
2022-09-15T07:12:03.457Z,1.67
2022-09-15T07:12:34.788Z,1.40
2022-09-15T07:13:06.096Z,1.10
2022-09-15T07:13:37.428Z,0.95
2022-09-15T07:14:08.923Z,1.25
2022-09-15T07:14:40.237Z,1.10
2022-09-15T07:15:11.841Z,1.40
2022-09-15T07:15:53.999Z,1.00
2022-09-15T07:16:25.755Z,1.02
2022-09-15T07:16:57.200Z,1.67
2022-09-15T07:17:29.021Z,0.85
2022-09-15T07:18:00.300Z,1.20
2022-09-15T07:18:32.589Z,1.13
2022-09-15T07:19:05.734Z,1.52
2022-09-15T07:19:38.462Z,1.85
2022-09-15T07:20:09.804Z,1.60
2022-09-15T07:20:41.819Z,1.85
2022-09-15T07:21:21.481Z,1.67
2022-09-15T07:21:53.095Z,1.27
2022-09-15T07:22:24.576Z,1.55
2022-09-15T07:22:55.888Z,1.55
2022-09-15T07:23:27.748Z,1.33
2022-09-15T07:24:01.578Z,1.52
2022-09-15T07:24:36.384Z,1.40
2022-09-15T07:25:08.076Z,1.45
2022-09-15T07:25:45.280Z,1.30
2022-09-15T07:26:19.429Z,1.55
2022-09-15T07:26:51.929Z,1.13
2022-09-15T07:27:26.708Z,1.58
2022-09-15T07:27:58.055Z,1.55
2022-09-15T07:28:29.380Z,1.98
2022-09-15T07:29:02.754Z,1.17
2022-09-15T07:29:37.683Z,1.75
2022-09-15T07:30:11.352Z,1.13
2022-09-15T07:30:43.931Z,1.90
2022-09-15T07:31:17.887Z,2.30
2022-09-15T07:31:50.514Z,1.65
2022-09-15T07:32:21.857Z,1.67
2022-09-15T07:32:53.181Z,1.98
2022-09-15T07:33:24.499Z,2.22
2022-09-15T07:33:55.936Z,1.10
2022-09-15T07:34:27.222Z,0.87
2022-09-15T07:34:58.676Z,1.27